createdAt,value
2023-03-31T00:00:21.926Z,7.34
2023-03-31T00:01:58.348Z,7.42
2023-03-31T00:03:30.700Z,7.42
2023-03-31T00:05:02.947Z,7.44
2023-03-31T00:06:42.123Z,7.50
2023-03-31T00:08:14.692Z,7.52
2023-03-31T00:09:48.715Z,7.54
2023-03-31T00:11:23.944Z,7.58
2023-03-31T00:12:56.099Z,7.51
2023-03-31T00:14:28.227Z,7.49
2023-03-31T00:16:04.434Z,7.53
2023-03-31T00:17:36.692Z,7.50
2023-03-31T00:19:10.565Z,7.49
2023-03-31T00:20:43.440Z,7.47
2023-03-31T00:22:19.304Z,7.50
2023-03-31T00:23:56.983Z,7.48
2023-03-31T00:25:29.095Z,7.48
2023-03-31T00:27:04.723Z,7.48
2023-03-31T00:28:36.889Z,7.44
2023-03-31T00:30:09.611Z,7.46
2023-03-31T00:31:41.855Z,7.43
2023-03-31T00:34:46.833Z,7.44
2023-03-31T00:36:21.822Z,7.47
2023-03-31T00:37:54.430Z,7.49
2023-03-31T00:39:28.530Z,7.55
2023-03-31T00:41:01.061Z,7.58
2023-03-31T00:42:33.150Z,7.59
2023-03-31T00:44:28.339Z,7.62
2023-03-31T00:46:24.848Z,7.59
2023-03-31T00:48:05.040Z,7.56
2023-03-31T00:49:51.140Z,7.60
2023-03-31T00:51:24.052Z,7.57
2023-03-31T00:53:08.312Z,7.60
2023-03-31T00:54:41.275Z,7.53
2023-03-31T00:56:15.976Z,7.54
2023-03-31T00:57:48.435Z,7.52
2023-03-31T00:59:21.355Z,7.54
2023-03-31T01:00:53.510Z,7.56
2023-03-31T01:02:26.125Z,7.58
2023-03-31T01:03:59.686Z,7.56
2023-03-31T01:05:35.289Z,7.65
2023-03-31T01:08:44.636Z,7.59
2023-03-31T01:10:16.817Z,7.58
2023-03-31T01:11:49.563Z,7.58
2023-03-31T01:13:22.384Z,7.62
2023-03-31T01:14:55.322Z,7.65
2023-03-31T01:16:27.465Z,7.64
2023-03-31T01:18:01.067Z,7.69
2023-03-31T01:19:46.482Z,7.78
2023-03-31T01:21:34.708Z,7.96
2023-03-31T01:23:31.437Z,8.14
2023-03-31T01:25:24.018Z,8.31
2023-03-31T01:27:03.608Z,8.41
2023-03-31T01:28:52.645Z,8.46
2023-03-31T01:31:22.429Z,8.50
2023-03-31T01:33:06.363Z,8.51
2023-03-31T01:34:53.176Z,8.54
2023-03-31T01:36:49.698Z,8.54
2023-03-31T01:38:43.182Z,8.57
2023-03-31T01:40:43.211Z,8.59
2023-03-31T01:42:24.532Z,8.60
2023-03-31T01:44:05.747Z,8.56
2023-03-31T01:46:02.227Z,8.56
2023-03-31T01:48:02.267Z,8.38
2023-03-31T01:49:47.912Z,8.31
2023-03-31T01:51:26.732Z,8.29
2023-03-31T01:53:06.731Z,8.40
2023-03-31T01:54:51.318Z,8.39
2023-03-31T01:56:46.505Z,8.44
2023-03-31T01:58:25.360Z,8.50
2023-03-31T02:00:18.632Z,8.55
2023-03-31T02:01:56.749Z,8.62
2023-03-31T02:03:34.890Z,8.66
2023-03-31T02:05:19.709Z,8.73
2023-03-31T02:06:58.815Z,8.83
2023-03-31T02:08:34.871Z,8.87
2023-03-31T02:10:09.924Z,8.96
2023-03-31T02:11:42.778Z,8.98
2023-03-31T02:13:16.575Z,9.04
2023-03-31T02:14:50.940Z,9.06
2023-03-31T02:16:27.243Z,9.04
2023-03-31T02:18:01.089Z,9.00
2023-03-31T02:19:40.009Z,8.99
2023-03-31T02:21:13.953Z,8.99
2023-03-31T02:22:49.481Z,9.05
2023-03-31T02:24:25.188Z,9.08
2023-03-31T02:26:04.865Z,9.11
2023-03-31T02:27:42.541Z,9.14
2023-03-31T02:29:14.690Z,9.15
2023-03-31T02:30:50.863Z,9.15
2023-03-31T02:32:39.057Z,9.16
2023-03-31T02:34:11.132Z,9.14
2023-03-31T02:35:43.523Z,9.17
2023-03-31T02:37:16.074Z,9.20
2023-03-31T02:39:04.891Z,9.24
2023-03-31T02:42:19.331Z,9.23
2023-03-31T02:43:51.588Z,9.22
2023-03-31T02:45:52.254Z,9.21
2023-03-31T02:47:24.567Z,9.17
2023-03-31T02:48:58.258Z,9.20
2023-03-31T02:50:35.753Z,9.22
2023-03-31T02:52:38.507Z,9.23
2023-03-31T02:54:48.900Z,9.21
2023-03-31T02:56:49.241Z,9.09
2023-03-31T02:58:27.734Z,9.06
2023-03-31T03:00:10.027Z,9.05
2023-03-31T03:01:54.268Z,9.03
2023-03-31T03:03:32.161Z,8.98
2023-03-31T03:05:39.644Z,9.03
2023-03-31T03:07:34.143Z,9.00
2023-03-31T03:09:24.676Z,9.01
2023-03-31T03:11:08.571Z,8.97
2023-03-31T03:13:02.641Z,8.91
2023-03-31T03:14:52.842Z,8.95
2023-03-31T03:16:33.316Z,8.92
2023-03-31T03:18:06.930Z,8.90
2023-03-31T03:19:39.119Z,8.88
2023-03-31T03:21:11.514Z,8.87
2023-03-31T03:22:43.655Z,8.84
2023-03-31T03:24:19.319Z,8.85
2023-03-31T03:25:51.653Z,8.82
2023-03-31T03:27:23.808Z,8.80
2023-03-31T03:28:57.048Z,8.76
2023-03-31T03:30:29.219Z,8.75
2023-03-31T03:32:01.267Z,8.72
2023-03-31T03:33:33.413Z,8.72
2023-03-31T03:35:06.694Z,8.71
2023-03-31T03:36:41.791Z,8.71
2023-03-31T03:38:13.872Z,8.68
2023-03-31T03:39:46.104Z,8.66
2023-03-31T03:41:18.501Z,8.67
2023-03-31T03:42:50.647Z,8.67
2023-03-31T03:44:22.743Z,8.66
2023-03-31T03:45:54.992Z,8.68
2023-03-31T03:47:27.288Z,8.69
2023-03-31T03:48:59.601Z,8.70
2023-03-31T03:50:31.880Z,8.73
2023-03-31T03:52:04.607Z,8.74
2023-03-31T03:53:36.972Z,8.74
2023-03-31T03:55:09.456Z,8.73
2023-03-31T03:56:44.443Z,8.67
2023-03-31T03:58:20.411Z,8.66
2023-03-31T03:59:52.714Z,8.55
2023-03-31T04:01:24.809Z,8.56
2023-03-31T04:02:57.066Z,8.57
2023-03-31T04:04:29.238Z,8.58
2023-03-31T04:06:01.362Z,8.56
2023-03-31T04:07:33.533Z,8.57
2023-03-31T04:09:05.881Z,8.61
2023-03-31T04:10:37.993Z,8.63
2023-03-31T04:12:10.139Z,8.66
2023-03-31T04:13:42.280Z,8.67
2023-03-31T04:15:14.596Z,8.69
2023-03-31T04:16:47.254Z,8.69
2023-03-31T04:18:23.458Z,8.69
2023-03-31T04:19:55.672Z,8.69
2023-03-31T04:21:27.850Z,8.72
2023-03-31T04:22:59.997Z,8.74
2023-03-31T04:24:33.524Z,8.76
2023-03-31T04:26:09.349Z,8.77
2023-03-31T04:27:55.143Z,8.80
2023-03-31T04:29:27.489Z,8.81
2023-03-31T04:30:59.620Z,8.81
2023-03-31T04:32:33.441Z,8.79
2023-03-31T04:34:07.486Z,8.80
2023-03-31T04:35:53.044Z,8.80
2023-03-31T04:37:28.583Z,8.80
2023-03-31T04:39:01.535Z,8.83
2023-03-31T04:40:35.711Z,8.85
2023-03-31T04:42:08.034Z,8.88
2023-03-31T04:43:40.139Z,8.92
2023-03-31T04:45:12.769Z,8.97
2023-03-31T04:46:44.837Z,9.00
2023-03-31T04:48:17.037Z,9.04
2023-03-31T04:49:49.177Z,9.09
2023-03-31T04:51:21.310Z,9.11
2023-03-31T04:52:55.903Z,9.18
2023-03-31T04:54:27.993Z,9.17
2023-03-31T04:56:00.370Z,9.20
2023-03-31T04:57:32.535Z,9.24
2023-03-31T04:59:04.723Z,9.26
2023-03-31T05:00:37.007Z,9.26
2023-03-31T05:02:09.304Z,9.26
2023-03-31T05:03:41.845Z,9.24
2023-03-31T05:05:14.006Z,9.22
2023-03-31T05:06:46.237Z,9.23
2023-03-31T05:08:18.479Z,9.22
2023-03-31T05:09:51.093Z,9.24
2023-03-31T05:11:25.566Z,9.25
2023-03-31T05:12:58.005Z,9.24
2023-03-31T05:14:30.238Z,9.20
2023-03-31T05:16:15.049Z,9.24
2023-03-31T05:17:47.241Z,9.22
2023-03-31T05:19:19.562Z,9.22
2023-03-31T05:20:51.847Z,9.24
2023-03-31T05:22:24.073Z,9.28
2023-03-31T05:23:56.215Z,9.32
2023-03-31T05:25:33.092Z,9.36
2023-03-31T05:27:05.206Z,9.37
2023-03-31T05:28:37.535Z,9.39
2023-03-31T05:30:10.432Z,9.38
2023-03-31T05:31:42.604Z,9.39
2023-03-31T05:33:15.009Z,9.35
2023-03-31T05:34:47.256Z,9.29
2023-03-31T05:36:19.527Z,9.27
2023-03-31T05:37:52.044Z,9.28
2023-03-31T05:39:24.320Z,9.30
2023-03-31T05:40:56.801Z,9.29
2023-03-31T05:42:28.990Z,9.27
2023-03-31T05:44:02.492Z,9.29
2023-03-31T05:45:34.607Z,9.37
2023-03-31T05:47:06.725Z,9.29
2023-03-31T05:48:38.916Z,9.36
2023-03-31T05:50:14.037Z,9.34
2023-03-31T05:51:47.264Z,9.37
2023-03-31T05:53:19.584Z,9.40
2023-03-31T05:56:24.532Z,9.44
2023-03-31T05:57:57.262Z,9.49
2023-03-31T05:59:29.559Z,9.54
2023-03-31T06:01:06.960Z,9.60
2023-03-31T06:02:39.665Z,9.60
2023-03-31T06:04:12.031Z,9.64
2023-03-31T06:05:54.560Z,9.71
2023-03-31T06:07:26.888Z,9.69
2023-03-31T06:08:59.143Z,9.71
2023-03-31T06:10:31.373Z,9.72
2023-03-31T06:12:03.644Z,9.76
2023-03-31T06:13:36.945Z,9.80
2023-03-31T06:15:09.546Z,9.83
2023-03-31T06:16:41.898Z,9.84
2023-03-31T06:18:14.209Z,9.86
2023-03-31T06:19:46.406Z,9.88
2023-03-31T06:21:19.139Z,9.90
2023-03-31T06:22:51.488Z,9.92
2023-03-31T06:24:23.701Z,9.93
2023-03-31T06:26:01.534Z,9.99
2023-03-31T06:27:33.740Z,9.99
2023-03-31T06:29:05.920Z,10.01
2023-03-31T06:30:38.405Z,10.03
2023-03-31T06:32:10.629Z,10.04
2023-03-31T06:33:43.728Z,10.07
2023-03-31T06:35:15.994Z,10.07
2023-03-31T06:36:48.200Z,10.05
2023-03-31T06:38:20.356Z,10.08
2023-03-31T06:39:55.293Z,10.10
2023-03-31T06:41:27.804Z,10.11
2023-03-31T06:43:00.230Z,10.12
2023-03-31T06:44:32.423Z,10.15
2023-03-31T06:46:05.143Z,10.16
2023-03-31T06:47:42.010Z,10.21
2023-03-31T06:49:14.286Z,10.26
2023-03-31T06:50:46.771Z,10.29
2023-03-31T06:52:18.967Z,10.35
2023-03-31T06:53:51.200Z,10.40
2023-03-31T06:55:23.466Z,10.46
2023-03-31T06:56:55.968Z,10.52
2023-03-31T06:58:31.192Z,10.56
2023-03-31T07:00:06.358Z,10.58
2023-03-31T07:01:39.603Z,10.64
2023-03-31T07:03:12.106Z,10.69
2023-03-31T07:04:44.368Z,10.73
2023-03-31T07:06:17.193Z,10.79
2023-03-31T07:07:49.250Z,10.84
2023-03-31T07:09:23.837Z,10.90
2023-03-31T07:10:58.323Z,10.98
2023-03-31T07:12:34.304Z,11.04
2023-03-31T07:14:06.743Z,11.08
2023-03-31T07:15:38.839Z,11.16
2023-03-31T07:17:11.071Z,11.24
2023-03-31T07:18:43.305Z,11.34
2023-03-31T07:20:16.710Z,11.45
2023-03-31T07:21:48.739Z,11.57
2023-03-31T07:23:21.637Z,11.56
2023-03-31T07:24:53.855Z,11.62
2023-03-31T07:26:27.482Z,11.69
2023-03-31T07:27:59.743Z,11.73
2023-03-31T07:29:31.922Z,11.84
2023-03-31T07:31:04.319Z,11.93
2023-03-31T07:32:40.532Z,12.02
2023-03-31T07:34:12.794Z,12.07
2023-03-31T07:35:45.040Z,12.11
2023-03-31T07:37:17.583Z,12.18
2023-03-31T07:38:50.188Z,12.25
2023-03-31T07:40:25.517Z,12.38
2023-03-31T07:41:57.706Z,12.46
2023-03-31T07:43:29.914Z,12.55
2023-03-31T07:45:03.083Z,12.65
2023-03-31T07:46:35.325Z,12.72
2023-03-31T07:48:07.967Z,12.84
2023-03-31T07:49:40.366Z,12.92
2023-03-31T07:51:15.700Z,13.03
2023-03-31T07:52:47.983Z,13.18
2023-03-31T07:54:20.206Z,13.31
2023-03-31T07:55:52.386Z,13.40
2023-03-31T07:57:24.644Z,13.49
2023-03-31T07:58:57.789Z,13.53
2023-03-31T08:00:30.233Z,13.61
2023-03-31T08:02:02.506Z,13.68
2023-03-31T08:03:35.277Z,13.74
2023-03-31T08:05:08.421Z,13.82
2023-03-31T08:06:40.706Z,13.83
2023-03-31T08:08:13.057Z,13.86
2023-03-31T08:09:46.996Z,13.92
2023-03-31T08:11:21.735Z,13.94
2023-03-31T08:12:54.153Z,13.98
2023-03-31T08:14:40.030Z,14.00
2023-03-31T08:16:13.209Z,14.05
2023-03-31T08:17:45.460Z,14.10
2023-03-31T08:19:17.643Z,14.18
2023-03-31T08:20:50.325Z,14.27
2023-03-31T08:22:23.960Z,14.36
2023-03-31T08:23:56.797Z,14.48
2023-03-31T08:25:28.922Z,14.60
2023-03-31T08:27:01.169Z,14.72
2023-03-31T08:28:33.348Z,14.90
2023-03-31T08:30:07.565Z,15.11
2023-03-31T08:31:40.114Z,15.24
2023-03-31T08:33:15.539Z,15.38
2023-03-31T08:34:47.747Z,15.51
2023-03-31T08:36:20.071Z,15.59
2023-03-31T08:39:28.101Z,15.85
2023-03-31T08:41:01.059Z,16.00
2023-03-31T08:43:19.671Z,16.07
2023-03-31T08:44:57.444Z,16.18
2023-03-31T08:46:31.470Z,16.31
2023-03-31T08:48:26.085Z,16.37
2023-03-31T08:50:08.301Z,16.41
2023-03-31T08:51:50.050Z,16.41
2023-03-31T08:53:35.776Z,16.35
2023-03-31T08:55:11.972Z,16.43
2023-03-31T08:56:48.267Z,16.48
2023-03-31T08:58:41.930Z,16.51
2023-03-31T09:00:22.541Z,16.46
2023-03-31T09:02:19.375Z,16.46
2023-03-31T09:04:12.537Z,16.37
2023-03-31T09:05:59.564Z,16.39
2023-03-31T09:07:49.081Z,16.43
2023-03-31T09:09:31.410Z,16.50
2023-03-31T09:11:15.006Z,16.52
2023-03-31T09:14:31.355Z,16.59
2023-03-31T09:16:15.731Z,16.64
2023-03-31T09:17:52.052Z,16.58
2023-03-31T09:19:40.418Z,16.63
2023-03-31T09:21:23.997Z,16.61
2023-03-31T09:23:05.707Z,16.67
2023-03-31T09:24:48.219Z,16.77
2023-03-31T09:26:46.024Z,16.87
2023-03-31T09:28:23.389Z,16.84
2023-03-31T09:30:12.704Z,16.90
2023-03-31T09:31:45.413Z,16.91
2023-03-31T09:33:33.037Z,17.06
2023-03-31T09:35:29.789Z,17.12
2023-03-31T09:37:02.293Z,17.04
2023-03-31T09:38:34.606Z,17.11
2023-03-31T09:40:08.390Z,17.09
2023-03-31T09:41:45.128Z,17.15
2023-03-31T09:43:23.507Z,17.14
2023-03-31T09:44:56.537Z,17.06
2023-03-31T09:46:34.845Z,17.12
2023-03-31T09:48:16.977Z,17.10
2023-03-31T09:49:53.698Z,17.04
2023-03-31T09:51:30.957Z,17.13
2023-03-31T09:53:05.769Z,17.19
2023-03-31T09:54:40.521Z,17.21
2023-03-31T09:56:12.840Z,17.18
2023-03-31T09:57:45.063Z,17.11
2023-03-31T09:59:20.378Z,17.09
2023-03-31T10:01:03.109Z,17.08
2023-03-31T10:02:38.392Z,17.08
2023-03-31T10:04:10.985Z,17.07
2023-03-31T10:05:53.771Z,17.06
2023-03-31T10:07:26.752Z,17.07
2023-03-31T10:09:02.845Z,17.07
2023-03-31T10:10:34.979Z,17.03
2023-03-31T10:12:10.931Z,17.06
2023-03-31T10:14:05.386Z,17.11
2023-03-31T10:15:42.374Z,17.11
2023-03-31T10:17:17.512Z,17.04
2023-03-31T10:18:50.347Z,17.06
2023-03-31T10:20:49.437Z,17.13
2023-03-31T10:22:21.715Z,17.12
2023-03-31T10:23:55.440Z,17.20
2023-03-31T10:25:29.111Z,17.22
2023-03-31T10:27:01.469Z,17.23
2023-03-31T10:28:37.623Z,17.30
2023-03-31T10:30:12.329Z,17.35
2023-03-31T10:31:44.701Z,17.29
2023-03-31T10:33:23.147Z,17.31
2023-03-31T10:35:19.964Z,17.39
2023-03-31T10:36:52.553Z,17.34
2023-03-31T10:38:28.221Z,17.39
2023-03-31T10:40:07.210Z,17.39
2023-03-31T10:41:39.951Z,17.34
2023-03-31T10:43:15.203Z,17.41
2023-03-31T10:44:47.411Z,17.39
2023-03-31T10:46:20.135Z,17.45
2023-03-31T10:47:55.293Z,17.48
2023-03-31T10:49:28.536Z,17.51
2023-03-31T10:51:05.700Z,17.52
2023-03-31T10:52:45.383Z,17.50
2023-03-31T10:54:17.530Z,17.53
2023-03-31T10:55:52.358Z,17.53
2023-03-31T10:57:36.094Z,17.55
2023-03-31T10:59:23.259Z,17.63
2023-03-31T11:01:37.063Z,17.64
2023-03-31T11:03:14.877Z,17.63
2023-03-31T11:05:16.711Z,17.73
2023-03-31T11:07:05.881Z,17.75
2023-03-31T11:08:57.958Z,17.76
2023-03-31T11:10:38.523Z,17.80
2023-03-31T11:12:20.354Z,17.86
2023-03-31T11:14:03.655Z,17.95
2023-03-31T11:15:56.226Z,18.10
2023-03-31T11:17:59.013Z,18.23
2023-03-31T11:20:25.535Z,18.51
2023-03-31T11:22:16.582Z,18.66
2023-03-31T11:24:26.556Z,18.68
2023-03-31T11:26:12.051Z,18.77
2023-03-31T11:28:04.044Z,18.84
2023-03-31T11:29:41.831Z,18.87
2023-03-31T11:31:29.138Z,18.85
2023-03-31T11:33:39.170Z,18.92
2023-03-31T11:35:16.609Z,18.87
2023-03-31T11:37:17.727Z,18.98
2023-03-31T11:39:11.717Z,18.96
2023-03-31T11:41:07.150Z,18.96
2023-03-31T11:42:59.641Z,19.01
2023-03-31T11:44:47.742Z,18.95
2023-03-31T11:46:24.285Z,18.94
2023-03-31T11:48:06.189Z,18.91
2023-03-31T11:49:42.943Z,18.87
2023-03-31T11:51:21.395Z,18.90
2023-03-31T11:53:16.712Z,18.93
2023-03-31T11:55:03.487Z,18.87
2023-03-31T11:56:40.375Z,18.84
2023-03-31T11:58:24.984Z,18.71
2023-03-31T12:00:00.426Z,18.62
2023-03-31T12:01:35.526Z,18.60
2023-03-31T12:03:17.304Z,18.59
2023-03-31T12:04:54.481Z,18.52
2023-03-31T12:06:31.376Z,18.53
2023-03-31T12:08:05.671Z,18.55
2023-03-31T12:10:06.315Z,18.51
2023-03-31T12:11:58.440Z,18.53
2023-03-31T12:13:39.668Z,18.47
2023-03-31T12:15:34.921Z,18.50
2023-03-31T12:17:15.202Z,18.60
2023-03-31T12:19:18.134Z,18.74
2023-03-31T12:20:53.702Z,18.85
2023-03-31T12:22:39.480Z,18.89
2023-03-31T12:24:14.103Z,18.92
2023-03-31T12:25:53.844Z,18.92
2023-03-31T12:27:38.785Z,18.89
2023-03-31T12:29:31.573Z,18.91
2023-03-31T12:31:05.981Z,18.98
2023-03-31T12:32:42.487Z,18.98
2023-03-31T12:34:17.265Z,18.95
2023-03-31T12:35:58.176Z,19.05
2023-03-31T12:37:37.621Z,19.06
2023-03-31T12:39:09.716Z,19.12
2023-03-31T12:40:58.391Z,19.02
2023-03-31T12:42:52.932Z,19.01
2023-03-31T12:44:48.587Z,19.08
2023-03-31T12:46:39.521Z,19.11
2023-03-31T12:48:21.207Z,19.18
2023-03-31T12:49:56.189Z,19.12
2023-03-31T12:51:33.837Z,19.06
2023-03-31T12:53:17.897Z,19.16
2023-03-31T12:55:13.069Z,19.16
2023-03-31T12:57:03.408Z,19.17
2023-03-31T12:58:46.883Z,19.11
2023-03-31T13:02:24.732Z,19.05
2023-03-31T13:04:21.542Z,18.96
2023-03-31T13:05:53.825Z,18.90
2023-03-31T13:07:28.874Z,18.94
2023-03-31T13:09:05.193Z,19.05
2023-03-31T13:11:10.053Z,19.24
2023-03-31T13:12:43.391Z,19.33
2023-03-31T13:14:23.732Z,19.52
2023-03-31T13:15:57.617Z,19.64
2023-03-31T13:17:38.735Z,19.77
2023-03-31T13:19:13.532Z,19.83
2023-03-31T13:20:46.573Z,19.90
2023-03-31T13:22:38.379Z,20.07
2023-03-31T13:24:10.854Z,20.15
2023-03-31T13:25:46.644Z,20.19
2023-03-31T13:27:31.760Z,20.17
2023-03-31T13:29:21.330Z,20.22
2023-03-31T13:31:03.462Z,20.13
2023-03-31T13:32:37.634Z,20.16
2023-03-31T13:34:10.016Z,20.17
2023-03-31T13:35:47.006Z,20.18
2023-03-31T13:37:45.462Z,20.22
2023-03-31T13:39:36.374Z,20.25
2023-03-31T13:41:25.312Z,20.26
2023-03-31T13:43:21.990Z,20.31
2023-03-31T13:45:15.593Z,20.38
2023-03-31T13:46:58.266Z,20.39
2023-03-31T13:48:38.137Z,20.42
2023-03-31T13:50:40.295Z,20.45
2023-03-31T13:52:13.209Z,20.47
2023-03-31T13:53:58.154Z,20.51
2023-03-31T13:55:49.190Z,20.52
2023-03-31T13:57:32.677Z,20.33
2023-03-31T14:01:32.920Z,20.36
2023-03-31T14:03:26.415Z,20.38
2023-03-31T14:05:09.900Z,20.42
2023-03-31T14:06:53.205Z,20.48
2023-03-31T14:08:47.301Z,20.48
2023-03-31T14:10:39.463Z,20.52
2023-03-31T14:12:37.991Z,20.55
2023-03-31T14:14:16.071Z,20.50
2023-03-31T14:15:53.849Z,20.48
2023-03-31T14:17:38.315Z,20.42
2023-03-31T14:21:18.422Z,20.35
2023-03-31T14:23:11.587Z,20.40
2023-03-31T14:24:51.685Z,20.43
2023-03-31T14:26:42.840Z,20.40
2023-03-31T14:28:33.597Z,20.45
2023-03-31T14:30:27.604Z,20.48
2023-03-31T14:32:39.899Z,20.54
2023-03-31T14:34:14.992Z,20.55
2023-03-31T14:36:08.539Z,20.61
2023-03-31T14:37:41.205Z,20.58
2023-03-31T14:39:13.928Z,20.48
2023-03-31T14:40:50.346Z,20.55
2023-03-31T14:42:29.266Z,20.58
2023-03-31T14:44:02.942Z,20.52
2023-03-31T14:45:35.358Z,20.43
2023-03-31T14:47:14.809Z,20.40
2023-03-31T14:48:48.276Z,20.38
2023-03-31T14:50:20.691Z,20.43
2023-03-31T14:51:54.094Z,20.50
2023-03-31T14:53:28.643Z,20.56
2023-03-31T15:07:08.651Z,20.63
2023-03-31T15:08:41.203Z,20.69
2023-03-31T15:10:19.333Z,20.70
2023-03-31T15:11:59.925Z,20.72
2023-03-31T15:14:03.366Z,20.76
2023-03-31T15:15:38.316Z,20.70
2023-03-31T15:17:26.568Z,20.73
2023-03-31T15:19:00.932Z,20.71
2023-03-31T15:20:37.957Z,20.69
2023-03-31T15:22:16.885Z,20.60
2023-03-31T15:23:53.526Z,20.54
2023-03-31T15:25:29.760Z,20.31
2023-03-31T15:27:37.078Z,20.23
2023-03-31T15:29:17.633Z,20.18
2023-03-31T15:30:56.989Z,20.10
2023-03-31T15:32:40.640Z,20.00
2023-03-31T15:34:33.695Z,19.93
2023-03-31T15:36:06.447Z,19.77
2023-03-31T15:37:43.254Z,19.67
2023-03-31T15:39:15.658Z,19.34
2023-03-31T15:40:54.952Z,19.25
2023-03-31T15:42:28.549Z,19.20
2023-03-31T15:44:09.165Z,19.20
2023-03-31T15:45:52.802Z,19.09
2023-03-31T15:47:32.725Z,19.03
2023-03-31T15:49:06.283Z,18.96
2023-03-31T15:50:39.693Z,18.85
2023-03-31T15:52:31.471Z,18.84
2023-03-31T15:54:04.231Z,18.75
2023-03-31T15:55:45.472Z,18.76
2023-03-31T15:57:22.780Z,18.65
2023-03-31T15:59:03.408Z,18.59
2023-03-31T16:00:39.026Z,18.41
2023-03-31T16:02:14.434Z,18.39
2023-03-31T16:03:46.962Z,18.27
2023-03-31T16:07:35.330Z,18.15
2023-03-31T16:09:09.466Z,18.08
2023-03-31T16:10:41.737Z,18.00
2023-03-31T16:12:21.766Z,17.98
2023-03-31T16:13:56.824Z,17.92
2023-03-31T16:15:41.635Z,17.84
2023-03-31T16:17:22.857Z,17.75
2023-03-31T16:19:04.737Z,17.71
2023-03-31T16:20:43.520Z,17.64
2023-03-31T16:22:20.220Z,17.56
2023-03-31T16:23:54.983Z,17.48
2023-03-31T16:25:30.147Z,17.42
2023-03-31T16:27:06.924Z,17.30
2023-03-31T16:28:39.213Z,17.14
2023-03-31T16:30:14.875Z,17.06
2023-03-31T16:31:47.633Z,16.96
2023-03-31T16:33:24.205Z,16.88
2023-03-31T16:35:01.641Z,16.79
2023-03-31T16:36:34.361Z,16.66
2023-03-31T16:38:07.707Z,16.61
2023-03-31T16:39:39.754Z,16.59
2023-03-31T16:41:12.657Z,16.47
2023-03-31T16:42:44.877Z,16.38
2023-03-31T16:44:17.201Z,16.28
2023-03-31T16:45:54.498Z,16.18
2023-03-31T16:47:35.128Z,16.07
2023-03-31T16:49:08.263Z,15.96
2023-03-31T16:50:41.626Z,15.86
2023-03-31T16:52:14.266Z,15.86
2023-03-31T16:53:47.801Z,15.76
2023-03-31T16:55:20.137Z,15.65
2023-03-31T16:56:52.763Z,15.59
2023-03-31T16:58:25.504Z,15.54
2023-03-31T16:59:58.967Z,15.46
2023-03-31T17:01:31.459Z,15.37
2023-03-31T17:03:05.249Z,15.31
2023-03-31T17:04:37.562Z,15.23
2023-03-31T17:06:12.142Z,15.16
2023-03-31T17:09:19.225Z,14.95
2023-03-31T17:10:56.836Z,14.89
2023-03-31T17:12:32.026Z,14.83
2023-03-31T17:14:05.720Z,14.74
2023-03-31T17:15:38.248Z,14.71
2023-03-31T17:17:10.547Z,14.67
2023-03-31T17:18:42.871Z,14.63
2023-03-31T17:20:15.462Z,14.61
2023-03-31T17:21:51.569Z,14.62
2023-03-31T17:23:23.812Z,14.53
2023-03-31T17:24:58.782Z,14.46
2023-03-31T17:26:31.234Z,14.37
2023-03-31T17:28:07.046Z,14.33
2023-03-31T17:29:39.284Z,14.26
2023-03-31T17:31:16.172Z,14.22
2023-03-31T17:32:50.700Z,14.14
2023-03-31T17:34:24.360Z,14.10
2023-03-31T17:35:58.904Z,14.07
2023-03-31T17:37:31.334Z,14.02
2023-03-31T17:39:05.529Z,14.01
2023-03-31T17:40:38.109Z,13.96
2023-03-31T17:42:12.238Z,13.95
2023-03-31T17:43:49.324Z,13.94
2023-03-31T17:45:22.147Z,13.87
2023-03-31T17:46:54.417Z,13.83
2023-03-31T17:48:28.343Z,13.79
2023-03-31T17:50:00.556Z,13.75
2023-03-31T17:51:34.961Z,13.70
2023-03-31T17:53:09.523Z,13.67
2023-03-31T17:54:42.325Z,13.61
2023-03-31T17:56:15.327Z,13.56
2023-03-31T17:57:47.496Z,13.50
2023-03-31T17:59:20.283Z,13.49
2023-03-31T18:00:52.605Z,13.43
2023-03-31T18:02:25.531Z,13.34
2023-03-31T18:03:58.198Z,13.25
2023-03-31T18:05:30.601Z,13.17
2023-03-31T18:07:02.922Z,13.08
2023-03-31T18:08:35.727Z,13.04
2023-03-31T18:10:08.743Z,12.97
2023-03-31T18:11:41.232Z,12.93
2023-03-31T18:13:13.486Z,12.84
2023-03-31T18:14:46.618Z,12.80
2023-03-31T18:16:19.846Z,12.74
2023-03-31T18:17:52.271Z,12.69
2023-03-31T18:19:24.702Z,12.60
2023-03-31T18:20:57.292Z,12.59
2023-03-31T18:22:29.503Z,12.53
2023-03-31T18:24:02.277Z,12.46
2023-03-31T18:25:34.770Z,12.44
2023-03-31T18:27:07.553Z,12.40
2023-03-31T18:28:41.301Z,12.33
2023-03-31T18:30:14.207Z,12.29
2023-03-31T18:31:46.448Z,12.25
2023-03-31T18:33:19.157Z,12.18
2023-03-31T18:34:51.495Z,12.12
2023-03-31T18:36:24.330Z,12.11
2023-03-31T18:37:56.882Z,12.05
2023-03-31T18:39:28.942Z,11.98
2023-03-31T18:41:01.222Z,11.90
2023-03-31T18:42:33.627Z,11.84
2023-03-31T18:44:06.134Z,11.80
2023-03-31T18:45:39.121Z,11.74
2023-03-31T18:47:11.378Z,11.69
2023-03-31T18:48:43.516Z,11.65
2023-03-31T18:50:15.775Z,11.61
2023-03-31T18:51:48.349Z,11.52
2023-03-31T18:53:21.942Z,11.43
2023-03-31T18:54:54.528Z,11.33
2023-03-31T18:56:26.821Z,11.26
2023-03-31T18:57:59.616Z,11.22
2023-03-31T18:59:31.864Z,11.18
2023-03-31T19:01:04.190Z,11.14
2023-03-31T19:02:36.837Z,11.16
2023-03-31T19:04:09.507Z,11.11
2023-03-31T19:05:42.132Z,11.11
2023-03-31T19:07:16.091Z,11.11
2023-03-31T19:08:48.352Z,11.07
2023-03-31T19:10:20.550Z,11.03
2023-03-31T19:11:53.731Z,10.98
2023-03-31T19:13:26.363Z,10.95
2023-03-31T19:14:58.799Z,10.89
2023-03-31T19:16:31.076Z,10.86
2023-03-31T19:18:04.371Z,10.82
2023-03-31T19:19:37.209Z,10.77
2023-03-31T19:21:10.011Z,10.74
2023-03-31T19:22:44.165Z,10.71
2023-03-31T19:24:17.368Z,10.66
2023-03-31T19:25:56.507Z,10.62
2023-03-31T19:27:28.682Z,10.56
2023-03-31T19:29:00.953Z,10.53
2023-03-31T19:30:33.568Z,10.48
2023-03-31T19:32:06.774Z,10.45
2023-03-31T19:33:39.122Z,10.38
2023-03-31T19:35:11.754Z,10.34
2023-03-31T19:36:44.118Z,10.28
2023-03-31T19:38:16.375Z,10.20
2023-03-31T19:39:48.698Z,10.11
2023-03-31T19:41:21.039Z,10.05
2023-03-31T19:42:53.314Z,9.96
2023-03-31T19:44:25.523Z,9.97
2023-03-31T19:45:58.365Z,9.92
2023-03-31T19:47:30.656Z,9.84
2023-03-31T19:49:03.124Z,9.75
2023-03-31T19:50:35.912Z,9.66
2023-03-31T19:52:08.282Z,9.62
2023-03-31T19:53:41.305Z,9.57
2023-03-31T19:55:13.780Z,9.50
2023-03-31T19:56:46.039Z,9.45
2023-03-31T19:58:18.251Z,9.38
2023-03-31T19:59:53.212Z,9.32
2023-03-31T20:01:27.833Z,9.31
2023-03-31T20:03:00.641Z,9.27
2023-03-31T20:04:33.770Z,9.24
2023-03-31T20:06:11.924Z,9.19
2023-03-31T20:07:44.160Z,9.09
2023-03-31T20:09:16.342Z,9.02
2023-03-31T20:10:49.708Z,8.96
2023-03-31T20:12:22.186Z,8.96
2023-03-31T20:13:54.905Z,8.92
2023-03-31T20:15:26.980Z,8.88
2023-03-31T20:17:01.455Z,8.84
2023-03-31T20:18:35.017Z,8.86
2023-03-31T20:20:08.553Z,8.88
2023-03-31T20:21:43.093Z,8.91
2023-03-31T20:23:15.250Z,8.84
2023-03-31T20:24:47.406Z,8.78
2023-03-31T20:26:22.365Z,8.73
2023-03-31T20:27:54.531Z,8.65
2023-03-31T20:29:26.651Z,8.64
2023-03-31T20:30:58.976Z,8.64
2023-03-31T20:32:31.201Z,8.63
2023-03-31T20:34:04.233Z,8.67
2023-03-31T20:35:37.024Z,8.67
2023-03-31T20:37:09.347Z,8.62
2023-03-31T20:38:43.472Z,8.60
2023-03-31T20:40:16.366Z,8.58
2023-03-31T20:41:50.351Z,8.55
2023-03-31T20:43:22.988Z,8.53
2023-03-31T20:44:55.127Z,8.52
2023-03-31T20:46:28.507Z,8.46
2023-03-31T20:48:00.955Z,8.43
2023-03-31T20:49:33.159Z,8.30
2023-03-31T20:51:08.002Z,8.21
2023-03-31T20:52:40.212Z,8.11
2023-03-31T20:54:12.410Z,8.03
2023-03-31T20:55:44.980Z,7.91
2023-03-31T20:57:17.787Z,7.85
2023-03-31T20:58:51.226Z,7.82
2023-03-31T21:00:26.128Z,7.82
2023-03-31T21:01:58.959Z,7.82
2023-03-31T21:03:31.394Z,7.76
2023-03-31T21:05:03.556Z,7.68
2023-03-31T21:06:41.061Z,7.69
2023-03-31T21:08:13.420Z,7.67
2023-03-31T21:09:45.871Z,7.70
2023-03-31T21:11:18.292Z,7.74
2023-03-31T21:12:51.054Z,7.74
2023-03-31T21:14:23.270Z,7.68
2023-03-31T21:15:56.259Z,7.61
2023-03-31T21:17:28.386Z,7.54
2023-03-31T21:19:00.566Z,7.48
2023-03-31T21:20:33.908Z,7.46
2023-03-31T21:22:05.930Z,7.49
2023-03-31T21:23:38.472Z,7.43
2023-03-31T21:25:10.790Z,7.40
2023-03-31T21:26:42.981Z,7.43
2023-03-31T21:28:16.989Z,7.48
2023-03-31T21:29:49.055Z,7.52
2023-03-31T21:31:25.684Z,7.57
2023-03-31T21:32:57.835Z,7.50
2023-03-31T21:34:29.994Z,7.57
2023-03-31T21:36:02.233Z,7.58
2023-03-31T21:37:34.650Z,7.59
2023-03-31T21:39:06.848Z,7.59
2023-03-31T21:40:39.045Z,7.60